sensor_id;sensor_type;location;lat;lon;timestamp;P1;durP1;ratioP1;P2;durP2;ratioP2
20241;SDS011;10279;46.388;8.116;2024-01-27T00:00:33;4.50;;;2.30;;
20241;SDS011;10279;46.388;8.116;2024-01-27T00:03:00;5.67;;;2.47;;
20241;SDS011;10279;46.388;8.116;2024-01-27T00:05:29;2.70;;;2.30;;
20241;SDS011;10279;46.388;8.116;2024-01-27T00:07:57;3.30;;;2.30;;
20241;SDS011;10279;46.388;8.116;2024-01-27T00:10:24;3.60;;;2.27;;
20241;SDS011;10279;46.388;8.116;2024-01-27T00:12:51;3.67;;;2.20;;
20241;SDS011;10279;46.388;8.116;2024-01-27T00:15:19;2.43;;;1.97;;
20241;SDS011;10279;46.388;8.116;2024-01-27T00:17:46;2.17;;;1.87;;
20241;SDS011;10279;46.388;8.116;2024-01-27T00:20:15;2.30;;;1.80;;
20241;SDS011;10279;46.388;8.116;2024-01-27T00:22:42;2.60;;;2.03;;
20241;SDS011;10279;46.388;8.116;2024-01-27T00:25:09;2.40;;;2.00;;
20241;SDS011;10279;46.388;8.116;2024-01-27T00:27:36;2.30;;;2.00;;
20241;SDS011;10279;46.388;8.116;2024-01-27T00:30:04;2.40;;;2.10;;
20241;SDS011;10279;46.388;8.116;2024-01-27T00:32:32;2.30;;;2.10;;
20241;SDS011;10279;46.388;8.116;2024-01-27T00:35:00;4.00;;;2.40;;
20241;SDS011;10279;46.388;8.116;2024-01-27T00:37:28;2.50;;;1.87;;
20241;SDS011;10279;46.388;8.116;2024-01-27T00:39:55;2.87;;;2.10;;
20241;SDS011;10279;46.388;8.116;2024-01-27T00:42:22;4.10;;;2.60;;
20241;SDS011;10279;46.388;8.116;2024-01-27T00:44:51;2.93;;;2.37;;
20241;SDS011;10279;46.388;8.116;2024-01-27T00:47:19;2.10;;;1.90;;
20241;SDS011;10279;46.388;8.116;2024-01-27T00:49:46;3.47;;;2.00;;
20241;SDS011;10279;46.388;8.116;2024-01-27T00:52:13;2.80;;;2.50;;
20241;SDS011;10279;46.388;8.116;2024-01-27T00:54:41;2.37;;;2.10;;
20241;SDS011;10279;46.388;8.116;2024-01-27T00:57:08;3.67;;;2.57;;
20241;SDS011;10279;46.388;8.116;2024-01-27T00:59:35;2.13;;;1.93;;
20241;SDS011;10279;46.388;8.116;2024-01-27T01:02:02;1.97;;;1.73;;
20241;SDS011;10279;46.388;8.116;2024-01-27T01:04:30;2.80;;;2.07;;
20241;SDS011;10279;46.388;8.116;2024-01-27T01:06:57;2.20;;;2.00;;
20241;SDS011;10279;46.388;8.116;2024-01-27T01:09:25;2.97;;;1.70;;
20241;SDS011;10279;46.388;8.116;2024-01-27T01:11:52;2.13;;;1.90;;
20241;SDS011;10279;46.388;8.116;2024-01-27T01:14:20;2.93;;;2.50;;
20241;SDS011;10279;46.388;8.116;2024-01-27T01:16:47;1.77;;;1.60;;
20241;SDS011;10279;46.388;8.116;2024-01-27T01:19:14;3.00;;;2.03;;
20241;SDS011;10279;46.388;8.116;2024-01-27T01:21:42;2.20;;;1.97;;
20241;SDS011;10279;46.388;8.116;2024-01-27T01:24:10;1.83;;;1.57;;
20241;SDS011;10279;46.388;8.116;2024-01-27T01:26:37;2.10;;;1.77;;
20241;SDS011;10279;46.388;8.116;2024-01-27T01:29:04;2.03;;;1.80;;
20241;SDS011;10279;46.388;8.116;2024-01-27T01:31:31;2.87;;;1.57;;
20241;SDS011;10279;46.388;8.116;2024-01-27T01:33:58;1.90;;;1.53;;
20241;SDS011;10279;46.388;8.116;2024-01-27T01:36:25;2.83;;;1.90;;
20241;SDS011;10279;46.388;8.116;2024-01-27T01:38:53;3.73;;;2.00;;
20241;SDS011;10279;46.388;8.116;2024-01-27T01:41:20;3.10;;;1.80;;
20241;SDS011;10279;46.388;8.116;2024-01-27T01:43:47;2.47;;;1.60;;
20241;SDS011;10279;46.388;8.116;2024-01-27T01:46:14;3.20;;;1.80;;
20241;SDS011;10279;46.388;8.116;2024-01-27T01:48:41;1.90;;;1.60;;
20241;SDS011;10279;46.388;8.116;2024-01-27T01:51:09;5.13;;;1.77;;
20241;SDS011;10279;46.388;8.116;2024-01-27T01:53:37;1.97;;;1.70;;
20241;SDS011;10279;46.388;8.116;2024-01-27T01:56:04;1.97;;;1.60;;
20241;SDS011;10279;46.388;8.116;2024-01-27T01:58:32;1.93;;;1.40;;
20241;SDS011;10279;46.388;8.116;2024-01-27T02:01:00;1.87;;;1.50;;
20241;SDS011;10279;46.388;8.116;2024-01-27T02:03:28;2.30;;;1.30;;
20241;SDS011;10279;46.388;8.116;2024-01-27T02:05:55;1.73;;;1.40;;
20241;SDS011;10279;46.388;8.116;2024-01-27T02:08:23;1.73;;;1.57;;
20241;SDS011;10279;46.388;8.116;2024-01-27T02:10:50;2.53;;;1.63;;
20241;SDS011;10279;46.388;8.116;2024-01-27T02:13:21;2.87;;;1.97;;
20241;SDS011;10279;46.388;8.116;2024-01-27T02:15:49;2.77;;;1.33;;
20241;SDS011;10279;46.388;8.116;2024-01-27T02:18:17;2.23;;;1.40;;
20241;SDS011;10279;46.388;8.116;2024-01-27T02:20:45;2.20;;;1.40;;
20241;SDS011;10279;46.388;8.116;2024-01-27T02:23:12;1.53;;;1.40;;
20241;SDS011;10279;46.388;8.116;2024-01-27T02:25:39;2.03;;;1.80;;
20241;SDS011;10279;46.388;8.116;2024-01-27T02:28:06;1.47;;;1.30;;
20241;SDS011;10279;46.388;8.116;2024-01-27T02:30:34;1.60;;;1.33;;
20241;SDS011;10279;46.388;8.116;2024-01-27T02:33:01;1.97;;;1.50;;
20241;SDS011;10279;46.388;8.116;2024-01-27T02:35:29;2.90;;;1.50;;
20241;SDS011;10279;46.388;8.116;2024-01-27T02:37:56;2.63;;;1.40;;
20241;SDS011;10279;46.388;8.116;2024-01-27T02:40:23;1.60;;;1.33;;
20241;SDS011;10279;46.388;8.116;2024-01-27T02:42:50;1.33;;;1.20;;
20241;SDS011;10279;46.388;8.116;2024-01-27T02:45:17;1.40;;;1.27;;
20241;SDS011;10279;46.388;8.116;2024-01-27T02:47:44;3.87;;;1.50;;
20241;SDS011;10279;46.388;8.116;2024-01-27T02:50:12;2.37;;;1.73;;
20241;SDS011;10279;46.388;8.116;2024-01-27T02:52:39;1.90;;;1.50;;
20241;SDS011;10279;46.388;8.116;2024-01-27T02:55:06;2.03;;;1.50;;
20241;SDS011;10279;46.388;8.116;2024-01-27T02:57:34;1.43;;;1.33;;
20241;SDS011;10279;46.388;8.116;2024-01-27T03:00:01;1.73;;;1.33;;
20241;SDS011;10279;46.388;8.116;2024-01-27T03:02:29;1.40;;;1.30;;
20241;SDS011;10279;46.388;8.116;2024-01-27T03:04:56;1.30;;;1.20;;
20241;SDS011;10279;46.388;8.116;2024-01-27T03:07:23;2.00;;;1.30;;
20241;SDS011;10279;46.388;8.116;2024-01-27T03:09:50;1.80;;;1.57;;
20241;SDS011;10279;46.388;8.116;2024-01-27T03:12:17;1.40;;;1.10;;
20241;SDS011;10279;46.388;8.116;2024-01-27T03:14:45;2.07;;;1.50;;
20241;SDS011;10279;46.388;8.116;2024-01-27T03:17:13;1.63;;;1.40;;
20241;SDS011;10279;46.388;8.116;2024-01-27T03:19:40;2.20;;;1.47;;
20241;SDS011;10279;46.388;8.116;2024-01-27T03:22:07;2.03;;;1.40;;
20241;SDS011;10279;46.388;8.116;2024-01-27T03:24:34;1.77;;;1.30;;
20241;SDS011;10279;46.388;8.116;2024-01-27T03:27:01;1.30;;;1.20;;
20241;SDS011;10279;46.388;8.116;2024-01-27T03:29:28;1.83;;;1.40;;
20241;SDS011;10279;46.388;8.116;2024-01-27T03:31:55;1.33;;;1.23;;
20241;SDS011;10279;46.388;8.116;2024-01-27T03:34:23;1.60;;;1.50;;
20241;SDS011;10279;46.388;8.116;2024-01-27T03:36:52;2.00;;;1.43;;
20241;SDS011;10279;46.388;8.116;2024-01-27T03:39:19;1.40;;;1.27;;
20241;SDS011;10279;46.388;8.116;2024-01-27T03:41:46;1.50;;;1.23;;
20241;SDS011;10279;46.388;8.116;2024-01-27T03:44:13;2.87;;;1.60;;
20241;SDS011;10279;46.388;8.116;2024-01-27T03:46:40;3.93;;;1.87;;
20241;SDS011;10279;46.388;8.116;2024-01-27T03:49:08;1.50;;;1.20;;
20241;SDS011;10279;46.388;8.116;2024-01-27T03:51:35;2.47;;;1.37;;
20241;SDS011;10279;46.388;8.116;2024-01-27T03:54:02;3.07;;;1.30;;
20241;SDS011;10279;46.388;8.116;2024-01-27T03:56:30;1.50;;;1.10;;
20241;SDS011;10279;46.388;8.116;2024-01-27T03:58:57;1.93;;;1.37;;
20241;SDS011;10279;46.388;8.116;2024-01-27T04:01:27;1.37;;;1.27;;
20241;SDS011;10279;46.388;8.116;2024-01-27T04:03:54;1.67;;;1.57;;
20241;SDS011;10279;46.388;8.116;2024-01-27T04:06:21;2.33;;;1.57;;
20241;SDS011;10279;46.388;8.116;2024-01-27T04:08:48;1.30;;;1.20;;
20241;SDS011;10279;46.388;8.116;2024-01-27T04:11:19;1.87;;;1.30;;
20241;SDS011;10279;46.388;8.116;2024-01-27T04:13:48;1.97;;;1.43;;
20241;SDS011;10279;46.388;8.116;2024-01-27T04:16:19;3.50;;;1.30;;
20241;SDS011;10279;46.388;8.116;2024-01-27T04:18:46;1.67;;;1.47;;
20241;SDS011;10279;46.388;8.116;2024-01-27T04:21:14;1.30;;;1.20;;
20241;SDS011;10279;46.388;8.116;2024-01-27T04:23:41;1.67;;;1.30;;
20241;SDS011;10279;46.388;8.116;2024-01-27T04:26:08;1.20;;;1.10;;
20241;SDS011;10279;46.388;8.116;2024-01-27T04:28:36;2.30;;;1.20;;
20241;SDS011;10279;46.388;8.116;2024-01-27T04:31:04;1.67;;;1.30;;
20241;SDS011;10279;46.388;8.116;2024-01-27T04:33:31;1.20;;;1.10;;
20241;SDS011;10279;46.388;8.116;2024-01-27T04:35:59;1.43;;;1.20;;
20241;SDS011;10279;46.388;8.116;2024-01-27T04:38:26;1.67;;;1.10;;
20241;SDS011;10279;46.388;8.116;2024-01-27T04:40:54;1.50;;;1.10;;
20241;SDS011;10279;46.388;8.116;2024-01-27T04:43:21;2.67;;;1.40;;
20241;SDS011;10279;46.388;8.116;2024-01-27T04:45:48;2.30;;;1.30;;
20241;SDS011;10279;46.388;8.116;2024-01-27T04:48:16;1.90;;;0.97;;
20241;SDS011;10279;46.388;8.116;2024-01-27T04:50:44;1.53;;;1.40;;
20241;SDS011;10279;46.388;8.116;2024-01-27T04:53:11;0.97;;;0.97;;
20241;SDS011;10279;46.388;8.116;2024-01-27T04:55:39;2.70;;;1.20;;
20241;SDS011;10279;46.388;8.116;2024-01-27T04:58:06;1.10;;;1.00;;
20241;SDS011;10279;46.388;8.116;2024-01-27T05:00:34;1.70;;;1.17;;
20241;SDS011;10279;46.388;8.116;2024-01-27T05:03:01;0.93;;;0.93;;
20241;SDS011;10279;46.388;8.116;2024-01-27T05:05:30;1.10;;;1.03;;
20241;SDS011;10279;46.388;8.116;2024-01-27T05:08:01;1.20;;;1.10;;
20241;SDS011;10279;46.388;8.116;2024-01-27T05:10:29;0.90;;;0.90;;
20241;SDS011;10279;46.388;8.116;2024-01-27T05:12:56;0.97;;;0.90;;
20241;SDS011;10279;46.388;8.116;2024-01-27T05:15:23;1.40;;;1.30;;
20241;SDS011;10279;46.388;8.116;2024-01-27T05:17:51;1.40;;;1.30;;
20241;SDS011;10279;46.388;8.116;2024-01-27T05:20:18;2.17;;;1.50;;
20241;SDS011;10279;46.388;8.116;2024-01-27T05:22:46;1.67;;;1.57;;
20241;SDS011;10279;46.388;8.116;2024-01-27T05:25:13;2.00;;;1.30;;
20241;SDS011;10279;46.388;8.116;2024-01-27T05:27:40;2.50;;;1.20;;
20241;SDS011;10279;46.388;8.116;2024-01-27T05:30:07;1.43;;;1.30;;
20241;SDS011;10279;46.388;8.116;2024-01-27T05:32:35;1.63;;;1.20;;
20241;SDS011;10279;46.388;8.116;2024-01-27T05:35:02;1.77;;;1.03;;
20241;SDS011;10279;46.388;8.116;2024-01-27T05:37:31;1.40;;;1.30;;
20241;SDS011;10279;46.388;8.116;2024-01-27T05:39:58;2.33;;;1.10;;
20241;SDS011;10279;46.388;8.116;2024-01-27T05:42:26;2.00;;;1.20;;
20241;SDS011;10279;46.388;8.116;2024-01-27T05:44:53;2.27;;;1.40;;
20241;SDS011;10279;46.388;8.116;2024-01-27T05:47:20;1.00;;;1.00;;
20241;SDS011;10279;46.388;8.116;2024-01-27T05:49:47;1.57;;;1.20;;
20241;SDS011;10279;46.388;8.116;2024-01-27T05:52:15;2.03;;;1.23;;
20241;SDS011;10279;46.388;8.116;2024-01-27T05:54:51;1.00;;;0.90;;
20241;SDS011;10279;46.388;8.116;2024-01-27T05:57:18;1.03;;;0.87;;
20241;SDS011;10279;46.388;8.116;2024-01-27T05:59:46;1.43;;;1.00;;
20241;SDS011;10279;46.388;8.116;2024-01-27T06:02:13;2.03;;;1.10;;
20241;SDS011;10279;46.388;8.116;2024-01-27T06:04:41;1.13;;;1.03;;
20241;SDS011;10279;46.388;8.116;2024-01-27T06:07:08;1.30;;;1.00;;
20241;SDS011;10279;46.388;8.116;2024-01-27T06:09:37;1.20;;;0.87;;
20241;SDS011;10279;46.388;8.116;2024-01-27T06:12:05;1.33;;;1.23;;
20241;SDS011;10279;46.388;8.116;2024-01-27T06:14:32;2.10;;;1.00;;
20241;SDS011;10279;46.388;8.116;2024-01-27T06:17:00;1.10;;;1.00;;
20241;SDS011;10279;46.388;8.116;2024-01-27T06:19:29;1.13;;;1.00;;
20241;SDS011;10279;46.388;8.116;2024-01-27T06:21:57;1.77;;;1.23;;
20241;SDS011;10279;46.388;8.116;2024-01-27T06:24:24;2.07;;;1.20;;
20241;SDS011;10279;46.388;8.116;2024-01-27T06:26:51;1.10;;;1.00;;
20241;SDS011;10279;46.388;8.116;2024-01-27T06:29:18;1.33;;;1.17;;
20241;SDS011;10279;46.388;8.116;2024-01-27T06:31:45;1.97;;;1.20;;
20241;SDS011;10279;46.388;8.116;2024-01-27T06:34:13;1.43;;;1.30;;
20241;SDS011;10279;46.388;8.116;2024-01-27T06:36:40;1.50;;;1.40;;
20241;SDS011;10279;46.388;8.116;2024-01-27T06:39:07;2.07;;;1.20;;
20241;SDS011;10279;46.388;8.116;2024-01-27T06:41:34;3.17;;;1.97;;
20241;SDS011;10279;46.388;8.116;2024-01-27T06:44:02;1.50;;;1.40;;
20241;SDS011;10279;46.388;8.116;2024-01-27T06:46:29;1.20;;;1.10;;
20241;SDS011;10279;46.388;8.116;2024-01-27T06:48:56;1.33;;;1.23;;
20241;SDS011;10279;46.388;8.116;2024-01-27T06:51:24;2.53;;;1.40;;
20241;SDS011;10279;46.388;8.116;2024-01-27T06:53:51;1.37;;;1.20;;
20241;SDS011;10279;46.388;8.116;2024-01-27T06:56:18;1.27;;;1.00;;
20241;SDS011;10279;46.388;8.116;2024-01-27T06:58:45;1.77;;;1.30;;
20241;SDS011;10279;46.388;8.116;2024-01-27T07:01:12;1.20;;;1.10;;
20241;SDS011;10279;46.388;8.116;2024-01-27T07:03:39;1.30;;;1.00;;
20241;SDS011;10279;46.388;8.116;2024-01-27T07:06:07;1.30;;;1.20;;
20241;SDS011;10279;46.388;8.116;2024-01-27T07:08:34;1.10;;;1.00;;
20241;SDS011;10279;46.388;8.116;2024-01-27T07:11:04;1.40;;;1.10;;
20241;SDS011;10279;46.388;8.116;2024-01-27T07:13:32;1.57;;;1.47;;
20241;SDS011;10279;46.388;8.116;2024-01-27T07:15:59;1.23;;;1.13;;
20241;SDS011;10279;46.388;8.116;2024-01-27T07:18:26;1.03;;;0.90;;
20241;SDS011;10279;46.388;8.116;2024-01-27T07:20:53;1.20;;;0.87;;
20241;SDS011;10279;46.388;8.116;2024-01-27T07:23:21;0.90;;;0.90;;
20241;SDS011;10279;46.388;8.116;2024-01-27T07:25:49;1.33;;;1.20;;
20241;SDS011;10279;46.388;8.116;2024-01-27T07:28:16;1.37;;;1.00;;
20241;SDS011;10279;46.388;8.116;2024-01-27T07:30:45;4.27;;;1.10;;
20241;SDS011;10279;46.388;8.116;2024-01-27T07:33:12;1.60;;;1.23;;
20241;SDS011;10279;46.388;8.116;2024-01-27T07:35:40;1.30;;;1.20;;
20241;SDS011;10279;46.388;8.116;2024-01-27T07:38:07;2.87;;;1.80;;
20241;SDS011;10279;46.388;8.116;2024-01-27T07:40:35;2.33;;;1.73;;
20241;SDS011;10279;46.388;8.116;2024-01-27T07:43:02;1.83;;;1.50;;
20241;SDS011;10279;46.388;8.116;2024-01-27T07:45:30;1.17;;;1.07;;
20241;SDS011;10279;46.388;8.116;2024-01-27T07:47:57;1.33;;;1.03;;
20241;SDS011;10279;46.388;8.116;2024-01-27T07:50:27;3.03;;;1.13;;
20241;SDS011;10279;46.388;8.116;2024-01-27T07:52:55;1.10;;;1.00;;
20241;SDS011;10279;46.388;8.116;2024-01-27T07:55:22;1.83;;;1.27;;
20241;SDS011;10279;46.388;8.116;2024-01-27T07:57:49;2.53;;;1.50;;
20241;SDS011;10279;46.388;8.116;2024-01-27T08:00:16;2.83;;;1.50;;
20241;SDS011;10279;46.388;8.116;2024-01-27T08:02:44;1.70;;;1.30;;
20241;SDS011;10279;46.388;8.116;2024-01-27T08:05:11;1.83;;;1.73;;
20241;SDS011;10279;46.388;8.116;2024-01-27T08:07:38;2.13;;;1.63;;
20241;SDS011;10279;46.388;8.116;2024-01-27T08:10:05;2.47;;;1.70;;
20241;SDS011;10279;46.388;8.116;2024-01-27T08:12:33;2.00;;;1.47;;
20241;SDS011;10279;46.388;8.116;2024-01-27T08:15:00;1.80;;;1.40;;
20241;SDS011;10279;46.388;8.116;2024-01-27T08:17:31;1.00;;;1.00;;
20241;SDS011;10279;46.388;8.116;2024-01-27T08:19:58;1.40;;;1.23;;
20241;SDS011;10279;46.388;8.116;2024-01-27T08:22:26;1.70;;;1.60;;
20241;SDS011;10279;46.388;8.116;2024-01-27T08:24:53;4.57;;;3.77;;
20241;SDS011;10279;46.388;8.116;2024-01-27T08:27:20;4.23;;;3.83;;
20241;SDS011;10279;46.388;8.116;2024-01-27T08:29:47;2.30;;;2.00;;
20241;SDS011;10279;46.388;8.116;2024-01-27T08:32:14;1.87;;;1.53;;
20241;SDS011;10279;46.388;8.116;2024-01-27T08:34:41;1.30;;;1.07;;
20241;SDS011;10279;46.388;8.116;2024-01-27T08:37:17;1.27;;;1.17;;
20241;SDS011;10279;46.388;8.116;2024-01-27T08:39:45;1.13;;;1.03;;
20241;SDS011;10279;46.388;8.116;2024-01-27T08:42:12;2.20;;;1.10;;
20241;SDS011;10279;46.388;8.116;2024-01-27T08:44:40;1.10;;;1.00;;
20241;SDS011;10279;46.388;8.116;2024-01-27T08:47:07;1.17;;;0.90;;
20241;SDS011;10279;46.388;8.116;2024-01-27T08:49:34;0.97;;;0.97;;
20241;SDS011;10279;46.388;8.116;2024-01-27T08:52:02;1.20;;;1.10;;
20241;SDS011;10279;46.388;8.116;2024-01-27T08:54:29;2.10;;;1.47;;
20241;SDS011;10279;46.388;8.116;2024-01-27T08:56:57;1.67;;;1.30;;
20241;SDS011;10279;46.388;8.116;2024-01-27T08:59:24;1.40;;;1.30;;
20241;SDS011;10279;46.388;8.116;2024-01-27T09:01:51;1.10;;;1.00;;
20241;SDS011;10279;46.388;8.116;2024-01-27T09:04:18;0.80;;;0.70;;
20241;SDS011;10279;46.388;8.116;2024-01-27T09:06:46;2.20;;;1.30;;
20241;SDS011;10279;46.388;8.116;2024-01-27T09:09:13;2.60;;;1.40;;
20241;SDS011;10279;46.388;8.116;2024-01-27T09:11:40;1.70;;;1.20;;
20241;SDS011;10279;46.388;8.116;2024-01-27T09:14:08;1.30;;;0.83;;
20241;SDS011;10279;46.388;8.116;2024-01-27T09:16:35;2.37;;;1.23;;
20241;SDS011;10279;46.388;8.116;2024-01-27T09:19:03;1.97;;;0.87;;
20241;SDS011;10279;46.388;8.116;2024-01-27T09:21:30;2.83;;;0.90;;
20241;SDS011;10279;46.388;8.116;2024-01-27T09:23:59;1.23;;;1.00;;
20241;SDS011;10279;46.388;8.116;2024-01-27T09:26:29;2.40;;;1.63;;
20241;SDS011;10279;46.388;8.116;2024-01-27T09:28:56;1.97;;;1.40;;
20241;SDS011;10279;46.388;8.116;2024-01-27T09:31:23;1.90;;;1.40;;
20241;SDS011;10279;46.388;8.116;2024-01-27T09:33:52;3.10;;;2.13;;
20241;SDS011;10279;46.388;8.116;2024-01-27T09:36:21;4.00;;;2.63;;
20241;SDS011;10279;46.388;8.116;2024-01-27T09:38:48;2.23;;;1.67;;
20241;SDS011;10279;46.388;8.116;2024-01-27T09:41:16;1.37;;;1.27;;
20241;SDS011;10279;46.388;8.116;2024-01-27T09:43:44;2.17;;;1.23;;
20241;SDS011;10279;46.388;8.116;2024-01-27T09:46:15;3.67;;;2.30;;
20241;SDS011;10279;46.388;8.116;2024-01-27T09:48:43;4.73;;;2.53;;
20241;SDS011;10279;46.388;8.116;2024-01-27T09:51:12;5.80;;;3.67;;
20241;SDS011;10279;46.388;8.116;2024-01-27T09:53:39;4.73;;;2.83;;
20241;SDS011;10279;46.388;8.116;2024-01-27T09:56:07;3.17;;;2.23;;
20241;SDS011;10279;46.388;8.116;2024-01-27T09:58:36;2.73;;;2.00;;
20241;SDS011;10279;46.388;8.116;2024-01-27T10:01:03;2.10;;;1.80;;
20241;SDS011;10279;46.388;8.116;2024-01-27T10:03:32;2.47;;;1.80;;
20241;SDS011;10279;46.388;8.116;2024-01-27T10:06:01;1.73;;;1.43;;
20241;SDS011;10279;46.388;8.116;2024-01-27T10:08:30;1.33;;;1.23;;
20241;SDS011;10279;46.388;8.116;2024-01-27T10:10:57;2.10;;;1.43;;
20241;SDS011;10279;46.388;8.116;2024-01-27T10:13:25;1.83;;;1.37;;
20241;SDS011;10279;46.388;8.116;2024-01-27T10:16:07;2.23;;;1.40;;
20241;SDS011;10279;46.388;8.116;2024-01-27T10:18:36;3.40;;;2.00;;
20241;SDS011;10279;46.388;8.116;2024-01-27T10:21:18;2.87;;;2.20;;
20241;SDS011;10279;46.388;8.116;2024-01-27T10:23:47;1.33;;;1.23;;
20241;SDS011;10279;46.388;8.116;2024-01-27T10:26:14;2.00;;;1.17;;
20241;SDS011;10279;46.388;8.116;2024-01-27T10:28:41;2.13;;;1.30;;
20241;SDS011;10279;46.388;8.116;2024-01-27T10:31:11;1.27;;;1.17;;
20241;SDS011;10279;46.388;8.116;2024-01-27T10:33:39;2.60;;;1.60;;
20241;SDS011;10279;46.388;8.116;2024-01-27T10:36:17;3.70;;;1.17;;
20241;SDS011;10279;46.388;8.116;2024-01-27T10:38:45;1.73;;;1.00;;
20241;SDS011;10279;46.388;8.116;2024-01-27T10:41:12;1.03;;;1.00;;
20241;SDS011;10279;46.388;8.116;2024-01-27T10:43:49;0.70;;;0.70;;
20241;SDS011;10279;46.388;8.116;2024-01-27T10:46:22;0.93;;;0.80;;
20241;SDS011;10279;46.388;8.116;2024-01-27T10:48:52;1.40;;;0.90;;
20241;SDS011;10279;46.388;8.116;2024-01-27T10:51:54;1.23;;;0.90;;
20241;SDS011;10279;46.388;8.116;2024-01-27T10:54:23;0.60;;;0.60;;
20241;SDS011;10279;46.388;8.116;2024-01-27T10:56:53;0.80;;;0.80;;
20241;SDS011;10279;46.388;8.116;2024-01-27T10:59:25;1.30;;;1.00;;
20241;SDS011;10279;46.388;8.116;2024-01-27T11:01:54;3.13;;;0.73;;
20241;SDS011;10279;46.388;8.116;2024-01-27T11:04:23;0.57;;;0.57;;
20241;SDS011;10279;46.388;8.116;2024-01-27T11:06:52;0.90;;;0.70;;
20241;SDS011;10279;46.388;8.116;2024-01-27T11:09:20;1.53;;;1.10;;
20241;SDS011;10279;46.388;8.116;2024-01-27T11:11:48;0.87;;;0.50;;
20241;SDS011;10279;46.388;8.116;2024-01-27T11:14:15;0.70;;;0.50;;
20241;SDS011;10279;46.388;8.116;2024-01-27T11:16:43;0.90;;;0.60;;
20241;SDS011;10279;46.388;8.116;2024-01-27T11:19:12;0.83;;;0.40;;
20241;SDS011;10279;46.388;8.116;2024-01-27T11:21:40;0.70;;;0.63;;
20241;SDS011;10279;46.388;8.116;2024-01-27T11:26:44;2.03;;;0.70;;
20241;SDS011;10279;46.388;8.116;2024-01-27T11:29:11;1.33;;;1.23;;
20241;SDS011;10279;46.388;8.116;2024-01-27T11:31:46;1.43;;;0.53;;
20241;SDS011;10279;46.388;8.116;2024-01-27T11:34:17;0.57;;;0.50;;
20241;SDS011;10279;46.388;8.116;2024-01-27T11:36:47;1.47;;;0.60;;
20241;SDS011;10279;46.388;8.116;2024-01-27T11:39:24;0.40;;;0.40;;
20241;SDS011;10279;46.388;8.116;2024-01-27T11:42:05;1.03;;;0.87;;
20241;SDS011;10279;46.388;8.116;2024-01-27T11:44:37;2.40;;;0.93;;
20241;SDS011;10279;46.388;8.116;2024-01-27T11:47:05;1.03;;;0.63;;
20241;SDS011;10279;46.388;8.116;2024-01-27T11:49:39;0.50;;;0.50;;
20241;SDS011;10279;46.388;8.116;2024-01-27T11:52:11;0.57;;;0.50;;
20241;SDS011;10279;46.388;8.116;2024-01-27T11:54:38;0.30;;;0.30;;
20241;SDS011;10279;46.388;8.116;2024-01-27T11:57:05;0.63;;;0.50;;
20241;SDS011;10279;46.388;8.116;2024-01-27T11:59:33;0.47;;;0.47;;
20241;SDS011;10279;46.388;8.116;2024-01-27T12:02:03;0.50;;;0.50;;
20241;SDS011;10279;46.388;8.116;2024-01-27T12:04:31;0.30;;;0.30;;
20241;SDS011;10279;46.388;8.116;2024-01-27T12:06:58;0.40;;;0.40;;
20241;SDS011;10279;46.388;8.116;2024-01-27T12:09:26;0.40;;;0.40;;
20241;SDS011;10279;46.388;8.116;2024-01-27T12:11:53;0.33;;;0.33;;
20241;SDS011;10279;46.388;8.116;2024-01-27T12:14:21;0.20;;;0.20;;
20241;SDS011;10279;46.388;8.116;2024-01-27T12:16:48;2.07;;;0.40;;
20241;SDS011;10279;46.388;8.116;2024-01-27T12:19:15;0.30;;;0.30;;
20241;SDS011;10279;46.388;8.116;2024-01-27T12:21:49;0.33;;;0.33;;
20241;SDS011;10279;46.388;8.116;2024-01-27T12:24:16;0.20;;;0.20;;
20241;SDS011;10279;46.388;8.116;2024-01-27T12:26:48;0.27;;;0.27;;
20241;SDS011;10279;46.388;8.116;2024-01-27T12:29:15;0.40;;;0.27;;
20241;SDS011;10279;46.388;8.116;2024-01-27T12:31:42;0.30;;;0.30;;
20241;SDS011;10279;46.388;8.116;2024-01-27T12:34:10;0.73;;;0.23;;
20241;SDS011;10279;46.388;8.116;2024-01-27T12:36:41;0.30;;;0.30;;
20241;SDS011;10279;46.388;8.116;2024-01-27T12:39:09;0.30;;;0.30;;
20241;SDS011;10279;46.388;8.116;2024-01-27T12:41:37;2.20;;;0.30;;
20241;SDS011;10279;46.388;8.116;2024-01-27T12:44:05;1.40;;;0.30;;
20241;SDS011;10279;46.388;8.116;2024-01-27T12:46:33;0.10;;;0.10;;
20241;SDS011;10279;46.388;8.116;2024-01-27T12:49:00;1.27;;;0.20;;
20241;SDS011;10279;46.388;8.116;2024-01-27T12:51:28;1.30;;;0.30;;
20241;SDS011;10279;46.388;8.116;2024-01-27T12:53:55;1.60;;;0.30;;
20241;SDS011;10279;46.388;8.116;2024-01-27T12:56:22;0.30;;;0.30;;
20241;SDS011;10279;46.388;8.116;2024-01-27T12:58:49;0.30;;;0.30;;
20241;SDS011;10279;46.388;8.116;2024-01-27T13:01:16;1.90;;;0.30;;
20241;SDS011;10279;46.388;8.116;2024-01-27T13:03:44;0.30;;;0.30;;
20241;SDS011;10279;46.388;8.116;2024-01-27T13:06:12;0.30;;;0.30;;
20241;SDS011;10279;46.388;8.116;2024-01-27T13:08:40;0.83;;;0.43;;
20241;SDS011;10279;46.388;8.116;2024-01-27T13:11:08;0.30;;;0.30;;
20241;SDS011;10279;46.388;8.116;2024-01-27T13:13:36;0.83;;;0.30;;
20241;SDS011;10279;46.388;8.116;2024-01-27T13:16:03;0.40;;;0.40;;
20241;SDS011;10279;46.388;8.116;2024-01-27T13:18:30;0.20;;;0.20;;
20241;SDS011;10279;46.388;8.116;2024-01-27T13:20:58;2.90;;;0.33;;
20241;SDS011;10279;46.388;8.116;2024-01-27T13:23:25;0.20;;;0.20;;
20241;SDS011;10279;46.388;8.116;2024-01-27T13:25:52;0.63;;;0.55;;
20241;SDS011;10279;46.388;8.116;2024-01-27T13:28:39;0.55;;;0.50;;
20241;SDS011;10279;46.388;8.116;2024-01-27T13:31:07;0.30;;;0.30;;
20241;SDS011;10279;46.388;8.116;2024-01-27T13:33:34;0.20;;;0.20;;
20241;SDS011;10279;46.388;8.116;2024-01-27T13:36:02;0.73;;;0.20;;
20241;SDS011;10279;46.388;8.116;2024-01-27T13:38:29;0.70;;;0.32;;
20241;SDS011;10279;46.388;8.116;2024-01-27T13:40:56;0.30;;;0.20;;
20241;SDS011;10279;46.388;8.116;2024-01-27T13:43:23;1.20;;;0.80;;
20241;SDS011;10279;46.388;8.116;2024-01-27T13:45:51;0.75;;;0.65;;
20241;SDS011;10279;46.388;8.116;2024-01-27T13:48:21;0.68;;;0.43;;
20241;SDS011;10279;46.388;8.116;2024-01-27T13:50:49;0.40;;;0.40;;
20241;SDS011;10279;46.388;8.116;2024-01-27T13:53:16;2.58;;;0.40;;
20241;SDS011;10279;46.388;8.116;2024-01-27T13:55:43;0.50;;;0.50;;
20241;SDS011;10279;46.388;8.116;2024-01-27T13:58:10;1.90;;;1.42;;
20241;SDS011;10279;46.388;8.116;2024-01-27T14:00:37;1.13;;;0.90;;
20241;SDS011;10279;46.388;8.116;2024-01-27T14:03:05;0.55;;;0.52;;
20241;SDS011;10279;46.388;8.116;2024-01-27T14:05:32;0.93;;;0.50;;
20241;SDS011;10279;46.388;8.116;2024-01-27T14:07:59;0.43;;;0.43;;
20241;SDS011;10279;46.388;8.116;2024-01-27T14:10:26;0.40;;;0.40;;
20241;SDS011;10279;46.388;8.116;2024-01-27T14:12:55;0.40;;;0.40;;
20241;SDS011;10279;46.388;8.116;2024-01-27T14:15:22;0.35;;;0.35;;
20241;SDS011;10279;46.388;8.116;2024-01-27T14:17:49;2.58;;;1.25;;
20241;SDS011;10279;46.388;8.116;2024-01-27T14:20:16;1.15;;;0.77;;
20241;SDS011;10279;46.388;8.116;2024-01-27T14:22:44;0.80;;;0.70;;
20241;SDS011;10279;46.388;8.116;2024-01-27T14:25:11;1.00;;;0.47;;
20241;SDS011;10279;46.388;8.116;2024-01-27T14:27:39;0.80;;;0.70;;
20241;SDS011;10279;46.388;8.116;2024-01-27T14:30:06;1.55;;;0.32;;
20241;SDS011;10279;46.388;8.116;2024-01-27T14:32:34;0.65;;;0.50;;
20241;SDS011;10279;46.388;8.116;2024-01-27T14:35:01;1.42;;;0.70;;
20241;SDS011;10279;46.388;8.116;2024-01-27T14:37:32;0.50;;;0.45;;
20241;SDS011;10279;46.388;8.116;2024-01-27T14:40:00;0.50;;;0.30;;
20241;SDS011;10279;46.388;8.116;2024-01-27T14:42:27;0.57;;;0.55;;
20241;SDS011;10279;46.388;8.116;2024-01-27T14:44:57;0.50;;;0.50;;
20241;SDS011;10279;46.388;8.116;2024-01-27T14:47:25;0.63;;;0.40;;
20241;SDS011;10279;46.388;8.116;2024-01-27T14:49:52;0.82;;;0.47;;
20241;SDS011;10279;46.388;8.116;2024-01-27T14:52:20;1.85;;;0.68;;
20241;SDS011;10279;46.388;8.116;2024-01-27T14:54:48;1.48;;;0.98;;